sensor_id;sensor_type;location;lat;lon;timestamp;pressure;altitude;pressure_sealevel;temperature;humidity
82951;BME280;72737;53.332;6.514;2024-01-06T00:00:45;100336.34;;;13.93;56.39
82951;BME280;72737;53.332;6.514;2024-01-06T00:03:14;100334.72;;;13.92;56.70
82951;BME280;72737;53.332;6.514;2024-01-06T00:05:39;100335.34;;;14.02;56.29
82951;BME280;72737;53.332;6.514;2024-01-06T00:08:05;100340.38;;;14.09;56.36
82951;BME280;72737;53.332;6.514;2024-01-06T00:10:31;100345.34;;;14.07;56.25
82951;BME280;72737;53.332;6.514;2024-01-06T00:12:57;100359.41;;;14.00;56.08
82951;BME280;72737;53.332;6.514;2024-01-06T00:15:22;100359.81;;;13.94;56.04
82951;BME280;72737;53.332;6.514;2024-01-06T00:17:48;100365.38;;;13.89;56.48
82951;BME280;72737;53.332;6.514;2024-01-06T00:20:14;100365.28;;;13.80;56.37
82951;BME280;72737;53.332;6.514;2024-01-06T00:22:39;100387.63;;;13.82;56.83
82951;BME280;72737;53.332;6.514;2024-01-06T00:25:06;100377.81;;;13.81;56.74
82951;BME280;72737;53.332;6.514;2024-01-06T00:27:32;100384.59;;;13.84;56.55
82951;BME280;72737;53.332;6.514;2024-01-06T00:29:57;100384.69;;;13.79;56.49
82951;BME280;72737;53.332;6.514;2024-01-06T00:32:23;100391.97;;;13.83;57.09
82951;BME280;72737;53.332;6.514;2024-01-06T00:34:48;100386.50;;;13.83;56.87
82951;BME280;72737;53.332;6.514;2024-01-06T00:37:13;100393.91;;;13.83;57.06
82951;BME280;72737;53.332;6.514;2024-01-06T00:39:39;100397.22;;;13.80;56.81
82951;BME280;72737;53.332;6.514;2024-01-06T00:42:04;100393.59;;;13.70;57.11
82951;BME280;72737;53.332;6.514;2024-01-06T00:44:30;100398.66;;;13.77;57.05
82951;BME280;72737;53.332;6.514;2024-01-06T00:46:55;100408.56;;;13.73;57.32
82951;BME280;72737;53.332;6.514;2024-01-06T00:49:20;100404.50;;;13.70;57.47
82951;BME280;72737;53.332;6.514;2024-01-06T00:51:46;100388.59;;;13.59;57.50
82951;BME280;72737;53.332;6.514;2024-01-06T00:54:11;100405.94;;;13.68;56.82
82951;BME280;72737;53.332;6.514;2024-01-06T00:56:37;100411.59;;;13.71;57.05
82951;BME280;72737;53.332;6.514;2024-01-06T00:59:02;100410.41;;;13.78;56.65
82951;BME280;72737;53.332;6.514;2024-01-06T01:01:28;100411.59;;;13.71;57.28
82951;BME280;72737;53.332;6.514;2024-01-06T01:03:53;100423.63;;;13.70;57.12
82951;BME280;72737;53.332;6.514;2024-01-06T01:06:19;100414.63;;;13.70;57.36
82951;BME280;72737;53.332;6.514;2024-01-06T01:08:45;100420.97;;;13.65;56.92
82951;BME280;72737;53.332;6.514;2024-01-06T01:11:10;100430.19;;;13.69;57.08
82951;BME280;72737;53.332;6.514;2024-01-06T01:13:36;100427.78;;;13.68;56.77
82951;BME280;72737;53.332;6.514;2024-01-06T01:16:01;100427.16;;;13.57;57.07
82951;BME280;72737;53.332;6.514;2024-01-06T01:18:28;100443.63;;;13.66;56.66
82951;BME280;72737;53.332;6.514;2024-01-06T01:20:53;100448.91;;;13.62;57.45
82951;BME280;72737;53.332;6.514;2024-01-06T01:23:18;100449.38;;;13.64;57.29
82951;BME280;72737;53.332;6.514;2024-01-06T01:25:44;100462.84;;;13.61;57.24
82951;BME280;72737;53.332;6.514;2024-01-06T01:28:09;100455.97;;;13.63;56.84
82951;BME280;72737;53.332;6.514;2024-01-06T01:30:34;100458.03;;;13.71;57.02
82951;BME280;72737;53.332;6.514;2024-01-06T01:33:00;100453.47;;;13.67;56.77
82951;BME280;72737;53.332;6.514;2024-01-06T01:35:25;100469.44;;;13.73;56.45
82951;BME280;72737;53.332;6.514;2024-01-06T01:37:50;100475.72;;;13.74;57.16
82951;BME280;72737;53.332;6.514;2024-01-06T01:40:16;100476.75;;;13.78;57.02
82951;BME280;72737;53.332;6.514;2024-01-06T01:42:43;100473.22;;;13.78;56.33
82951;BME280;72737;53.332;6.514;2024-01-06T01:45:08;100481.50;;;13.72;56.86
82951;BME280;72737;53.332;6.514;2024-01-06T01:47:34;100489.38;;;13.74;57.06
82951;BME280;72737;53.332;6.514;2024-01-06T01:50:00;100473.78;;;13.74;57.15
82951;BME280;72737;53.332;6.514;2024-01-06T01:52:26;100478.25;;;13.70;57.01
82951;BME280;72737;53.332;6.514;2024-01-06T01:54:52;100478.53;;;13.69;57.20
82951;BME280;72737;53.332;6.514;2024-01-06T01:57:19;100480.25;;;13.65;57.67
82951;BME280;72737;53.332;6.514;2024-01-06T01:59:46;100486.69;;;13.55;57.35
82951;BME280;72737;53.332;6.514;2024-01-06T02:02:12;100494.06;;;13.55;58.15
82951;BME280;72737;53.332;6.514;2024-01-06T02:04:38;100483.22;;;13.50;58.25
82951;BME280;72737;53.332;6.514;2024-01-06T02:07:03;100498.72;;;13.54;58.48
82951;BME280;72737;53.332;6.514;2024-01-06T02:09:29;100501.75;;;13.53;58.69
82951;BME280;72737;53.332;6.514;2024-01-06T02:11:58;100506.41;;;13.52;58.87
82951;BME280;72737;53.332;6.514;2024-01-06T02:14:23;100506.09;;;13.54;58.18
82951;BME280;72737;53.332;6.514;2024-01-06T02:16:49;100500.94;;;13.52;58.57
82951;BME280;72737;53.332;6.514;2024-01-06T02:19:15;100501.16;;;13.56;58.58
82951;BME280;72737;53.332;6.514;2024-01-06T02:21:42;100507.41;;;13.56;58.16
82951;BME280;72737;53.332;6.514;2024-01-06T02:24:07;100510.44;;;13.55;58.89
82951;BME280;72737;53.332;6.514;2024-01-06T02:26:33;100514.28;;;13.54;58.72
82951;BME280;72737;53.332;6.514;2024-01-06T02:28:58;100514.50;;;13.57;58.96
82951;BME280;72737;53.332;6.514;2024-01-06T02:31:23;100514.59;;;13.52;58.77
82951;BME280;72737;53.332;6.514;2024-01-06T02:33:49;100521.56;;;13.58;58.49
82951;BME280;72737;53.332;6.514;2024-01-06T02:36:14;100528.97;;;13.58;58.24
82951;BME280;72737;53.332;6.514;2024-01-06T02:38:40;100529.25;;;13.56;58.44
82951;BME280;72737;53.332;6.514;2024-01-06T02:41:05;100533.63;;;13.57;58.61
82951;BME280;72737;53.332;6.514;2024-01-06T02:43:30;100525.78;;;13.51;58.29
82951;BME280;72737;53.332;6.514;2024-01-06T02:45:56;100534.94;;;13.60;58.81
82951;BME280;72737;53.332;6.514;2024-01-06T02:48:21;100531.72;;;13.58;58.98
82951;BME280;72737;53.332;6.514;2024-01-06T02:50:46;100539.56;;;13.59;58.54
82951;BME280;72737;53.332;6.514;2024-01-06T02:53:12;100539.56;;;13.59;59.21
82951;BME280;72737;53.332;6.514;2024-01-06T02:55:38;100543.13;;;13.60;58.90
82951;BME280;72737;53.332;6.514;2024-01-06T02:58:03;100550.75;;;13.63;59.19
82951;BME280;72737;53.332;6.514;2024-01-06T03:00:29;100557.50;;;13.65;59.17
82951;BME280;72737;53.332;6.514;2024-01-06T03:02:54;100564.88;;;13.65;58.87
82951;BME280;72737;53.332;6.514;2024-01-06T03:05:19;100565.16;;;13.63;59.03
82951;BME280;72737;53.332;6.514;2024-01-06T03:07:45;100560.03;;;13.62;59.32
82951;BME280;72737;53.332;6.514;2024-01-06T03:10:10;100572.78;;;13.66;59.33
82951;BME280;72737;53.332;6.514;2024-01-06T03:12:35;100562.44;;;13.63;59.15
82951;BME280;72737;53.332;6.514;2024-01-06T03:15:01;100558.59;;;13.64;59.12
82951;BME280;72737;53.332;6.514;2024-01-06T03:17:26;100564.59;;;13.66;58.76
82951;BME280;72737;53.332;6.514;2024-01-06T03:19:54;100567.25;;;13.71;58.54
82951;BME280;72737;53.332;6.514;2024-01-06T03:22:19;100580.09;;;13.71;58.78
82951;BME280;72737;53.332;6.514;2024-01-06T03:24:45;100571.16;;;13.65;58.96
82951;BME280;72737;53.332;6.514;2024-01-06T03:27:10;100574.41;;;13.67;58.89
82951;BME280;72737;53.332;6.514;2024-01-06T03:29:35;100579.47;;;13.74;59.36
82951;BME280;72737;53.332;6.514;2024-01-06T03:32:01;100590.41;;;13.74;59.40
82951;BME280;72737;53.332;6.514;2024-01-06T03:34:26;100590.41;;;13.74;59.48
82951;BME280;72737;53.332;6.514;2024-01-06T03:36:52;100598.31;;;13.75;59.10
82951;BME280;72737;53.332;6.514;2024-01-06T03:39:17;100594.28;;;13.73;58.96
82951;BME280;72737;53.332;6.514;2024-01-06T03:41:43;100588.28;;;13.71;59.09
82951;BME280;72737;53.332;6.514;2024-01-06T03:44:08;100597.72;;;13.79;59.16
82951;BME280;72737;53.332;6.514;2024-01-06T03:46:35;100600.16;;;13.80;59.51
82951;BME280;72737;53.332;6.514;2024-01-06T03:49:00;100595.22;;;13.82;58.68
82951;BME280;72737;53.332;6.514;2024-01-06T03:51:26;100606.44;;;13.81;59.30
82951;BME280;72737;53.332;6.514;2024-01-06T03:53:51;100597.13;;;13.82;59.08
82951;BME280;72737;53.332;6.514;2024-01-06T03:56:16;100600.34;;;13.84;58.89
82951;BME280;72737;53.332;6.514;2024-01-06T03:58:42;100597.72;;;13.79;59.19
82951;BME280;72737;53.332;6.514;2024-01-06T04:01:07;100599.88;;;13.82;59.18
82951;BME280;72737;53.332;6.514;2024-01-06T04:03:33;100613.00;;;13.80;59.10
82951;BME280;72737;53.332;6.514;2024-01-06T04:05:58;100618.09;;;13.86;59.49
82951;BME280;72737;53.332;6.514;2024-01-06T04:08:23;100620.81;;;13.86;58.91
82951;BME280;72737;53.332;6.514;2024-01-06T04:10:49;100616.53;;;13.80;59.26
82951;BME280;72737;53.332;6.514;2024-01-06T04:13:15;100624.13;;;13.83;59.16
82951;BME280;72737;53.332;6.514;2024-01-06T04:15:40;100619.81;;;13.82;58.95
82951;BME280;72737;53.332;6.514;2024-01-06T04:18:06;100630.94;;;13.86;59.09
82951;BME280;72737;53.332;6.514;2024-01-06T04:20:32;100631.16;;;13.89;59.20
82951;BME280;72737;53.332;6.514;2024-01-06T04:22:58;100638.25;;;13.90;58.66
82951;BME280;72737;53.332;6.514;2024-01-06T04:25:23;100631.22;;;13.84;59.19
82951;BME280;72737;53.332;6.514;2024-01-06T04:27:48;100634.19;;;13.88;59.39
82951;BME280;72737;53.332;6.514;2024-01-06T04:30:15;100627.75;;;13.79;59.17
82951;BME280;72737;53.332;6.514;2024-01-06T04:32:41;100635.78;;;13.89;58.86
82951;BME280;72737;53.332;6.514;2024-01-06T04:35:07;100636.94;;;13.88;58.98
82951;BME280;72737;53.332;6.514;2024-01-06T04:37:33;100650.59;;;13.88;59.34
82951;BME280;72737;53.332;6.514;2024-01-06T04:39:58;100654.34;;;13.92;59.27
82951;BME280;72737;53.332;6.514;2024-01-06T04:42:24;100657.22;;;14.00;60.25
82951;BME280;72737;53.332;6.514;2024-01-06T04:44:50;100664.50;;;14.05;59.28
82951;BME280;72737;53.332;6.514;2024-01-06T04:47:15;100665.31;;;14.05;59.30
82951;BME280;72737;53.332;6.514;2024-01-06T04:49:40;100673.72;;;14.09;59.04
82951;BME280;72737;53.332;6.514;2024-01-06T04:52:06;100685.47;;;14.09;59.44
82951;BME280;72737;53.332;6.514;2024-01-06T04:54:31;100688.53;;;14.08;59.49
82951;BME280;72737;53.332;6.514;2024-01-06T04:56:58;100694.19;;;14.11;59.79
82951;BME280;72737;53.332;6.514;2024-01-06T04:59:23;100697.75;;;14.12;58.99
82951;BME280;72737;53.332;6.514;2024-01-06T05:01:49;100704.84;;;14.13;59.20
82951;BME280;72737;53.332;6.514;2024-01-06T05:04:14;100698.84;;;14.11;59.05
82951;BME280;72737;53.332;6.514;2024-01-06T05:06:40;100699.06;;;14.14;59.48
82951;BME280;72737;53.332;6.514;2024-01-06T05:09:05;100705.06;;;14.16;59.49
82951;BME280;72737;53.332;6.514;2024-01-06T05:11:31;100701.22;;;14.17;59.35
82951;BME280;72737;53.332;6.514;2024-01-06T05:13:56;100704.53;;;14.14;59.17
82951;BME280;72737;53.332;6.514;2024-01-06T05:16:21;100712.44;;;14.16;59.11
82951;BME280;72737;53.332;6.514;2024-01-06T05:18:47;100719.75;;;14.21;58.73
82951;BME280;72737;53.332;6.514;2024-01-06T05:21:12;100714.88;;;14.17;59.36
82951;BME280;72737;53.332;6.514;2024-01-06T05:23:37;100722.41;;;14.26;59.60
82951;BME280;72737;53.332;6.514;2024-01-06T05:26:03;100711.63;;;14.15;59.40
82951;BME280;72737;53.332;6.514;2024-01-06T05:28:28;100725.22;;;14.21;59.40
82951;BME280;72737;53.332;6.514;2024-01-06T05:30:54;100718.44;;;14.18;58.85
82951;BME280;72737;53.332;6.514;2024-01-06T05:33:19;100724.47;;;14.15;59.21
82951;BME280;72737;53.332;6.514;2024-01-06T05:35:44;100725.81;;;14.17;58.99
82951;BME280;72737;53.332;6.514;2024-01-06T05:38:10;100735.31;;;14.20;59.24
82951;BME280;72737;53.332;6.514;2024-01-06T05:40:35;100736.97;;;14.21;58.76
82951;BME280;72737;53.332;6.514;2024-01-06T05:43:00;100745.75;;;14.18;59.32
82951;BME280;72737;53.332;6.514;2024-01-06T05:45:26;100755.81;;;14.23;58.86
82951;BME280;72737;53.332;6.514;2024-01-06T05:47:51;100753.34;;;14.21;58.96
82951;BME280;72737;53.332;6.514;2024-01-06T05:50:17;100750.09;;;14.19;59.36
82951;BME280;72737;53.332;6.514;2024-01-06T05:52:42;100764.81;;;14.23;58.75
82951;BME280;72737;53.332;6.514;2024-01-06T05:55:08;100769.16;;;14.24;58.94
82951;BME280;72737;53.332;6.514;2024-01-06T05:57:34;100765.38;;;14.20;59.18
82951;BME280;72737;53.332;6.514;2024-01-06T06:00:00;100774.03;;;14.27;59.45
82951;BME280;72737;53.332;6.514;2024-01-06T06:02:25;100771.38;;;14.22;59.30
82951;BME280;72737;53.332;6.514;2024-01-06T06:04:51;100766.81;;;14.17;59.11
82951;BME280;72737;53.332;6.514;2024-01-06T06:07:17;100781.72;;;14.25;59.34
82951;BME280;72737;53.332;6.514;2024-01-06T06:09:43;100780.09;;;14.24;59.02
82951;BME280;72737;53.332;6.514;2024-01-06T06:12:08;100792.56;;;14.30;59.51
82951;BME280;72737;53.332;6.514;2024-01-06T06:14:34;100786.16;;;14.21;59.32
82951;BME280;72737;53.332;6.514;2024-01-06T06:16:59;100801.59;;;14.31;59.12
82951;BME280;72737;53.332;6.514;2024-01-06T06:19:24;100801.59;;;14.31;59.34
82951;BME280;72737;53.332;6.514;2024-01-06T06:21:49;100807.59;;;14.33;58.82
82951;BME280;72737;53.332;6.514;2024-01-06T06:24:15;100821.00;;;14.29;59.15
82951;BME280;72737;53.332;6.514;2024-01-06T06:26:40;100819.97;;;14.25;59.33
82951;BME280;72737;53.332;6.514;2024-01-06T06:29:06;100831.38;;;14.32;58.86
82951;BME280;72737;53.332;6.514;2024-01-06T06:31:31;100833.78;;;14.34;59.27
82951;BME280;72737;53.332;6.514;2024-01-06T06:33:56;100845.25;;;14.36;59.09
82951;BME280;72737;53.332;6.514;2024-01-06T06:36:22;100841.22;;;14.33;59.51
82951;BME280;72737;53.332;6.514;2024-01-06T06:38:47;100853.22;;;14.37;59.40
82951;BME280;72737;53.332;6.514;2024-01-06T06:41:12;100850.19;;;14.34;58.92
82951;BME280;72737;53.332;6.514;2024-01-06T06:43:38;100857.28;;;14.35;58.90
82951;BME280;72737;53.332;6.514;2024-01-06T06:46:03;100844.28;;;14.27;59.36
82951;BME280;72737;53.332;6.514;2024-01-06T06:48:29;100872.84;;;14.39;59.23
82951;BME280;72737;53.332;6.514;2024-01-06T06:50:54;100863.06;;;14.33;58.75
82951;BME280;72737;53.332;6.514;2024-01-06T06:53:20;100881.38;;;14.38;58.92
82951;BME280;72737;53.332;6.514;2024-01-06T06:55:45;100878.63;;;14.38;59.02
82951;BME280;72737;53.332;6.514;2024-01-06T06:58:11;100870.75;;;14.31;58.94
82951;BME280;72737;53.332;6.514;2024-01-06T07:00:37;100892.22;;;14.43;59.40
82951;BME280;72737;53.332;6.514;2024-01-06T07:03:03;100884.94;;;14.33;58.54
82951;BME280;72737;53.332;6.514;2024-01-06T07:05:28;100898.50;;;14.43;58.59
82951;BME280;72737;53.332;6.514;2024-01-06T07:07:54;100906.19;;;14.41;58.63
82951;BME280;72737;53.332;6.514;2024-01-06T07:10:20;100909.44;;;14.43;59.03
82951;BME280;72737;53.332;6.514;2024-01-06T07:12:45;100911.38;;;14.43;58.57
82951;BME280;72737;53.332;6.514;2024-01-06T07:15:10;100918.16;;;14.45;59.07
82951;BME280;72737;53.332;6.514;2024-01-06T07:17:36;100921.72;;;14.46;58.63
82951;BME280;72737;53.332;6.514;2024-01-06T07:20:04;100928.59;;;14.43;58.90
82951;BME280;72737;53.332;6.514;2024-01-06T07:22:29;100913.28;;;14.42;58.62
82951;BME280;72737;53.332;6.514;2024-01-06T07:24:55;100929.09;;;14.45;58.56
82951;BME280;72737;53.332;6.514;2024-01-06T07:27:20;100940.25;;;14.49;58.84
82951;BME280;72737;53.332;6.514;2024-01-06T07:29:46;100931.00;;;14.45;58.77
82951;BME280;72737;53.332;6.514;2024-01-06T07:32:11;100944.94;;;14.48;59.01
82951;BME280;72737;53.332;6.514;2024-01-06T07:34:36;100938.41;;;14.44;58.61
82951;BME280;72737;53.332;6.514;2024-01-06T07:37:02;100949.59;;;14.48;58.86
82951;BME280;72737;53.332;6.514;2024-01-06T07:39:27;100950.91;;;14.50;58.39
82951;BME280;72737;53.332;6.514;2024-01-06T07:41:52;100955.28;;;14.51;58.57
82951;BME280;72737;53.332;6.514;2024-01-06T07:44:18;100948.84;;;14.42;58.33
82951;BME280;72737;53.332;6.514;2024-01-06T07:46:49;100951.78;;;14.46;58.30
82951;BME280;72737;53.332;6.514;2024-01-06T07:49:15;100956.97;;;14.47;58.28
82951;BME280;72737;53.332;6.514;2024-01-06T07:51:40;100967.03;;;14.52;58.22
82951;BME280;72737;53.332;6.514;2024-01-06T07:54:06;100965.16;;;14.47;58.45
82951;BME280;72737;53.332;6.514;2024-01-06T07:56:34;100960.81;;;14.46;58.67
82951;BME280;72737;53.332;6.514;2024-01-06T07:58:59;100977.44;;;14.50;58.12
82951;BME280;72737;53.332;6.514;2024-01-06T08:01:25;100973.31;;;14.52;58.11
82951;BME280;72737;53.332;6.514;2024-01-06T08:03:50;100970.34;;;14.49;58.28
82951;BME280;72737;53.332;6.514;2024-01-06T08:06:16;100975.75;;;14.54;58.56
82951;BME280;72737;53.332;6.514;2024-01-06T08:08:41;100976.13;;;14.47;58.62
82951;BME280;72737;53.332;6.514;2024-01-06T08:11:06;100987.50;;;14.54;58.59
82951;BME280;72737;53.332;6.514;2024-01-06T08:13:32;100981.53;;;14.52;58.36
82951;BME280;72737;53.332;6.514;2024-01-06T08:15:57;100992.16;;;14.54;58.22
82951;BME280;72737;53.332;6.514;2024-01-06T08:18:22;100995.13;;;14.57;58.49
82951;BME280;72737;53.332;6.514;2024-01-06T08:20:50;100988.63;;;14.53;58.42
82951;BME280;72737;53.332;6.514;2024-01-06T08:23:15;101008.00;;;14.57;58.11
82951;BME280;72737;53.332;6.514;2024-01-06T08:25:41;101004.22;;;14.53;57.63
82951;BME280;72737;53.332;6.514;2024-01-06T08:28:06;101010.78;;;14.52;58.16
82951;BME280;72737;53.332;6.514;2024-01-06T08:30:32;101016.13;;;14.62;57.32
82951;BME280;72737;53.332;6.514;2024-01-06T08:32:57;101021.31;;;14.64;57.51
82951;BME280;72737;53.332;6.514;2024-01-06T08:35:24;101026.63;;;14.74;57.32
82951;BME280;72737;53.332;6.514;2024-01-06T08:37:49;101021.63;;;14.81;56.90
82951;BME280;72737;53.332;6.514;2024-01-06T08:40:15;101037.91;;;14.91;56.54
82951;BME280;72737;53.332;6.514;2024-01-06T08:42:41;101033.41;;;15.00;56.53
82951;BME280;72737;53.332;6.514;2024-01-06T08:45:06;101037.34;;;15.13;56.73
82951;BME280;72737;53.332;6.514;2024-01-06T08:47:32;101041.88;;;15.22;56.41
82951;BME280;72737;53.332;6.514;2024-01-06T08:49:57;101047.19;;;15.32;56.20
82951;BME280;72737;53.332;6.514;2024-01-06T08:52:23;101046.22;;;15.42;56.29
82951;BME280;72737;53.332;6.514;2024-01-06T08:54:48;101050.16;;;15.55;55.99
82951;BME280;72737;53.332;6.514;2024-01-06T08:57:14;101052.25;;;15.63;55.76
82951;BME280;72737;53.332;6.514;2024-01-06T08:59:40;101056.44;;;15.74;56.07
82951;BME280;72737;53.332;6.514;2024-01-06T09:02:05;101059.09;;;15.79;55.48
82951;BME280;72737;53.332;6.514;2024-01-06T09:04:31;101065.28;;;15.84;55.81
82951;BME280;72737;53.332;6.514;2024-01-06T09:06:56;101069.81;;;15.94;55.92
82951;BME280;72737;53.332;6.514;2024-01-06T09:09:22;101059.06;;;15.98;55.69
82951;BME280;72737;53.332;6.514;2024-01-06T09:11:48;101077.25;;;16.07;55.84
82951;BME280;72737;53.332;6.514;2024-01-06T09:14:14;101078.28;;;16.11;55.65
82951;BME280;72737;53.332;6.514;2024-01-06T09:16:39;101082.03;;;16.15;55.37
82951;BME280;72737;53.332;6.514;2024-01-06T09:19:05;101077.97;;;16.13;55.43
82951;BME280;72737;53.332;6.514;2024-01-06T09:21:30;101088.47;;;16.24;55.20
82951;BME280;72737;53.332;6.514;2024-01-06T09:23:56;101085.13;;;16.27;55.53
82951;BME280;72737;53.332;6.514;2024-01-06T09:26:21;101091.03;;;16.35;55.44
82951;BME280;72737;53.332;6.514;2024-01-06T09:28:47;101084.75;;;16.34;55.59
82951;BME280;72737;53.332;6.514;2024-01-06T09:31:13;101094.69;;;16.44;55.35
82951;BME280;72737;53.332;6.514;2024-01-06T09:33:38;101103.09;;;16.80;54.76
82951;BME280;72737;53.332;6.514;2024-01-06T09:36:04;101103.66;;;17.17;53.61
82951;BME280;72737;53.332;6.514;2024-01-06T09:38:29;101110.34;;;17.39;53.04
82951;BME280;72737;53.332;6.514;2024-01-06T09:40:55;101096.00;;;17.42;52.79
82951;BME280;72737;53.332;6.514;2024-01-06T09:43:21;101109.69;;;17.55;52.58
82951;BME280;72737;53.332;6.514;2024-01-06T09:45:55;101113.06;;;17.52;52.23
82951;BME280;72737;53.332;6.514;2024-01-06T09:48:27;101125.44;;;17.77;51.99
82951;BME280;72737;53.332;6.514;2024-01-06T09:50:56;101117.94;;;17.69;52.17
82951;BME280;72737;53.332;6.514;2024-01-06T09:53:24;101123.03;;;17.62;52.26
82951;BME280;72737;53.332;6.514;2024-01-06T09:55:55;101135.75;;;17.58;51.99
82951;BME280;72737;53.332;6.514;2024-01-06T09:58:21;101146.56;;;17.54;51.97
82951;BME280;72737;53.332;6.514;2024-01-06T10:00:48;101139.59;;;17.57;51.87
82951;BME280;72737;53.332;6.514;2024-01-06T10:03:14;101135.75;;;17.58;51.62
82951;BME280;72737;53.332;6.514;2024-01-06T10:05:40;101138.72;;;17.48;51.84
82951;BME280;72737;53.332;6.514;2024-01-06T10:08:05;101136.50;;;17.50;51.99
82951;BME280;72737;53.332;6.514;2024-01-06T10:10:33;101138.84;;;17.43;52.13
82951;BME280;72737;53.332;6.514;2024-01-06T10:12:59;101142.84;;;17.23;52.56
82951;BME280;72737;53.332;6.514;2024-01-06T10:15:25;101151.91;;;17.10;53.04
82951;BME280;72737;53.332;6.514;2024-01-06T10:17:53;101141.72;;;16.97;53.34
82951;BME280;72737;53.332;6.514;2024-01-06T10:20:19;101146.81;;;16.90;53.62
82951;BME280;72737;53.332;6.514;2024-01-06T10:22:45;101146.69;;;16.81;53.93
82951;BME280;72737;53.332;6.514;2024-01-06T10:25:11;101153.72;;;16.73;54.22
82951;BME280;72737;53.332;6.514;2024-01-06T10:27:38;101140.47;;;16.62;53.92
82951;BME280;72737;53.332;6.514;2024-01-06T10:30:04;101163.47;;;16.80;53.25
82951;BME280;72737;53.332;6.514;2024-01-06T10:32:31;101165.09;;;16.81;52.90
82951;BME280;72737;53.332;6.514;2024-01-06T10:34:57;101157.47;;;16.78;52.46
82951;BME280;72737;53.332;6.514;2024-01-06T10:37:23;101160.22;;;16.78;52.19
82951;BME280;72737;53.332;6.514;2024-01-06T10:40:06;101162.25;;;16.72;52.21
82951;BME280;72737;53.332;6.514;2024-01-06T10:42:32;101152.38;;;16.71;52.57
82951;BME280;72737;53.332;6.514;2024-01-06T10:44:57;101158.59;;;16.77;54.39
82951;BME280;72737;53.332;6.514;2024-01-06T10:47:24;101161.84;;;16.79;54.52
82951;BME280;72737;53.332;6.514;2024-01-06T10:49:51;101161.13;;;16.73;54.48
82951;BME280;72737;53.332;6.514;2024-01-06T10:52:20;101157.22;;;16.60;54.45
82951;BME280;72737;53.332;6.514;2024-01-06T10:54:46;101162.78;;;16.55;55.05
82951;BME280;72737;53.332;6.514;2024-01-06T10:57:16;101169.03;;;16.61;55.01
82951;BME280;72737;53.332;6.514;2024-01-06T10:59:45;101173.19;;;16.58;54.75
82951;BME280;72737;53.332;6.514;2024-01-06T11:02:14;101165.47;;;16.60;54.96
82951;BME280;72737;53.332;6.514;2024-01-06T11:04:42;101169.09;;;16.56;54.46
82951;BME280;72737;53.332;6.514;2024-01-06T11:07:08;101171.19;;;16.45;55.18
82951;BME280;72737;53.332;6.514;2024-01-06T11:09:37;101172.81;;;16.46;55.08
82951;BME280;72737;53.332;6.514;2024-01-06T11:12:04;101181.06;;;16.46;55.06
82951;BME280;72737;53.332;6.514;2024-01-06T11:14:36;101176.75;;;16.40;54.76
82951;BME280;72737;53.332;6.514;2024-01-06T11:17:03;101178.81;;;16.35;54.93
82951;BME280;72737;53.332;6.514;2024-01-06T11:22:28;101177.84;;;16.25;54.93
82951;BME280;72737;53.332;6.514;2024-01-06T11:25:03;101173.03;;;16.17;55.15
82951;BME280;72737;53.332;6.514;2024-01-06T11:27:28;101185.41;;;16.15;55.16
82951;BME280;72737;53.332;6.514;2024-01-06T11:29:56;101191.13;;;16.18;55.42
82951;BME280;72737;53.332;6.514;2024-01-06T11:32:31;101184.53;;;16.19;55.11
82951;BME280;72737;53.332;6.514;2024-01-06T11:35:13;101185.72;;;16.13;55.10
82951;BME280;72737;53.332;6.514;2024-01-06T11:42:34;101186.78;;;15.99;55.39
82951;BME280;72737;53.332;6.514;2024-01-06T11:45:04;101199.59;;;16.03;55.47
82951;BME280;72737;53.332;6.514;2024-01-06T11:47:36;101200.78;;;15.97;55.20
82951;BME280;72737;53.332;6.514;2024-01-06T11:50:02;101194.84;;;15.90;55.60
82951;BME280;72737;53.332;6.514;2024-01-06T11:52:31;101201.00;;;16.01;55.27
82951;BME280;72737;53.332;6.514;2024-01-06T11:54:58;101198.84;;;15.98;55.31
82951;BME280;72737;53.332;6.514;2024-01-06T11:57:28;101209.38;;;15.91;55.78
82951;BME280;72737;53.332;6.514;2024-01-06T11:59:53;101204.19;;;15.89;55.90
82951;BME280;72737;53.332;6.514;2024-01-06T12:02:19;101203.31;;;15.94;54.98
82951;BME280;72737;53.332;6.514;2024-01-06T12:04:53;101212.34;;;15.94;54.91
82951;BME280;72737;53.332;6.514;2024-01-06T12:07:20;101210.25;;;15.86;54.98
82951;BME280;72737;53.332;6.514;2024-01-06T12:09:48;101215.81;;;15.81;55.88
82951;BME280;72737;53.332;6.514;2024-01-06T12:12:16;101212.69;;;15.69;55.36
82951;BME280;72737;53.332;6.514;2024-01-06T12:14:42;101213.19;;;15.71;55.44
82951;BME280;72737;53.332;6.514;2024-01-06T12:17:09;101227.72;;;15.71;55.27
82951;BME280;72737;53.332;6.514;2024-01-06T12:19:35;101227.19;;;15.69;55.89
82951;BME280;72737;53.332;6.514;2024-01-06T12:22:01;101221.50;;;15.66;55.75
82951;BME280;72737;53.332;6.514;2024-01-06T12:24:27;101214.91;;;15.67;55.48
82951;BME280;72737;53.332;6.514;2024-01-06T12:26:55;101214.38;;;15.65;56.08
82951;BME280;72737;53.332;6.514;2024-01-06T12:29:21;101211.50;;;15.56;56.08
82951;BME280;72737;53.332;6.514;2024-01-06T12:31:47;101211.50;;;15.56;56.30
82951;BME280;72737;53.332;6.514;2024-01-06T12:34:12;101217.50;;;15.58;55.89
82951;BME280;72737;53.332;6.514;2024-01-06T12:36:39;101220.00;;;15.55;55.88
82951;BME280;72737;53.332;6.514;2024-01-06T12:39:05;101230.94;;;15.55;56.34
82951;BME280;72737;53.332;6.514;2024-01-06T12:41:30;101227.69;;;15.53;56.41
82951;BME280;72737;53.332;6.514;2024-01-06T12:43:59;101237.59;;;15.49;56.00
82951;BME280;72737;53.332;6.514;2024-01-06T12:46:25;101236.78;;;15.48;56.35
82951;BME280;72737;53.332;6.514;2024-01-06T12:48:50;101236.47;;;15.50;56.56
82951;BME280;72737;53.332;6.514;2024-01-06T12:51:16;101243.31;;;15.52;56.55